Time;durP1;ratioP1;P1;durP2;ratioP2;P2;SDS_P1;SDS_P2;PMS_P1;PMS_P2;Temp;Humidity;BMP_temperature;BMP_pressure;BME280_temperature;BME280_humidity;BME280_pressure;Samples;Min_cycle;Max_cycle;Signal;HPM_P1;HPM_P2
2021/07/04 00:02:01;;;;;;;11.90;7.10;;;;;;;16.86;70.50;101173.72;10108324;28;20050;-74
2021/07/04 00:06:58;;;;;;;12.70;6.90;;;;;;;16.83;70.83;101177.19;10086753;28;20058;-73
2021/07/04 00:11:55;;;;;;;11.32;7.50;;;;;;;16.79;70.76;101173.50;10081825;28;20055;-73
2021/07/04 00:16:52;;;;;;;11.88;6.80;;;;;;;16.74;70.87;101182.81;10097876;28;20047;-73
2021/07/04 00:21:49;;;;;;;12.07;7.50;;;;;;;16.68;71.16;101175.09;10104372;28;20055;-72
2021/07/04 00:26:46;;;;;;;11.88;7.60;;;;;;;16.63;71.53;101176.16;10086309;28;20051;-73
2021/07/04 00:31:43;;;;;;;12.15;7.28;;;;;;;16.55;71.79;101180.66;10092147;28;20506;-73
2021/07/04 00:36:40;;;;;;;11.63;7.75;;;;;;;16.50;71.74;101167.09;10103261;28;20050;-74
2021/07/04 00:41:36;;;;;;;12.00;6.95;;;;;;;16.47;72.01;101166.97;10100516;28;20050;-73
2021/07/04 00:46:33;;;;;;;10.88;6.78;;;;;;;16.44;72.32;101167.69;10109035;28;20054;-74
2021/07/04 00:51:30;;;;;;;11.52;7.03;;;;;;;16.44;72.23;101162.16;10091768;28;20517;-74
2021/07/04 00:56:27;;;;;;;14.55;7.40;;;;;;;16.39;72.08;101154.91;10111382;28;20057;-73
2021/07/04 01:01:23;;;;;;;13.93;8.50;;;;;;;16.36;72.31;101150.91;10097324;28;20114;-73
2021/07/04 01:06:20;;;;;;;10.73;7.45;;;;;;;16.33;72.41;101153.53;10100346;28;20048;-73
2021/07/04 01:11:17;;;;;;;11.35;7.78;;;;;;;16.29;72.55;101149.84;10102942;28;20047;-74
2021/07/04 01:16:14;;;;;;;10.98;7.30;;;;;;;16.22;72.74;101144.91;10106622;28;20529;-74
2021/07/04 01:21:12;;;;;;;13.25;7.70;;;;;;;16.15;73.11;101145.50;10106137;28;20403;-73
2021/07/04 01:26:08;;;;;;;10.18;7.13;;;;;;;16.11;73.36;101155.63;10107377;28;20049;-73
2021/07/04 01:31:05;;;;;;;8.50;6.45;;;;;;;16.05;73.43;101140.44;10108491;28;20064;-74
2021/07/04 01:36:03;;;;;;;10.88;7.32;;;;;;;16.03;73.20;101148.25;10116394;28;20042;-74
2021/07/04 01:41:00;;;;;;;10.70;7.30;;;;;;;15.99;73.44;101147.34;10101184;28;20410;-78
2021/07/04 01:45:57;;;;;;;9.45;6.45;;;;;;;15.95;73.48;101132.63;10099155;28;20054;-79
2021/07/04 01:50:54;;;;;;;10.82;7.57;;;;;;;15.91;73.95;101134.47;10088872;28;20053;-78
2021/07/04 01:55:51;;;;;;;9.93;6.82;;;;;;;15.92;73.93;101130.53;10084838;28;20043;-80
2021/07/04 02:00:48;;;;;;;10.73;7.25;;;;;;;15.89;74.13;101126.53;10106132;28;20410;-78
2021/07/04 02:05:45;;;;;;;12.07;7.13;;;;;;;15.86;74.16;101131.94;10094817;28;20050;-79
2021/07/04 02:10:44;;;;;;;11.30;7.40;;;;;;;15.83;73.78;101127.09;10088734;28;20479;-79
2021/07/04 02:15:41;;;;;;;9.90;7.15;;;;;;;15.80;73.93;101133.31;10093132;28;20080;-79
2021/07/04 02:20:41;;;;;;;10.20;6.65;;;;;;;15.74;73.75;101130.78;10095188;28;20073;-79
2021/07/04 02:25:41;;;;;;;10.95;7.15;;;;;;;15.73;74.21;101131.09;10108987;28;20047;-79
2021/07/04 02:30:39;;;;;;;9.88;7.22;;;;;;;15.68;74.35;101132.09;10101268;28;20047;-78
2021/07/04 02:35:42;;;;;;;9.80;7.13;;;;;;;15.63;74.19;101137.06;10125716;28;20427;-78
2021/07/04 02:40:39;;;;;;;11.85;8.13;;;;;;;15.57;74.23;101130.94;10105548;28;20101;-79
2021/07/04 02:45:37;;;;;;;8.77;7.00;;;;;;;15.50;74.09;101131.53;10117700;28;20046;-80
2021/07/04 02:50:34;;;;;;;11.07;7.10;;;;;;;15.47;74.32;101137.69;10099482;28;20053;-78
2021/07/04 02:55:30;;;;;;;13.13;7.22;;;;;;;15.43;74.09;101135.97;10104915;28;20113;-79
2021/07/04 03:00:27;;;;;;;10.80;6.70;;;;;;;15.39;74.37;101135.03;10103380;28;20050;-79
2021/07/04 03:05:24;;;;;;;11.63;6.78;;;;;;;15.32;74.35;101136.41;10117203;28;20054;-79
2021/07/04 03:10:22;;;;;;;12.23;7.15;;;;;;;15.31;74.87;101139.50;10098411;28;20142;-79
2021/07/04 03:15:19;;;;;;;9.30;6.50;;;;;;;15.24;74.85;101134.53;10094075;28;20057;-79
2021/07/04 03:20:16;;;;;;;8.40;5.95;;;;;;;15.23;75.33;101137.63;10090426;28;20579;-79
2021/07/04 03:25:14;;;;;;;9.77;6.05;;;;;;;15.20;74.94;101130.88;10096766;28;20058;-79
2021/07/04 03:30:14;;;;;;;8.82;5.75;;;;;;;15.23;74.66;101127.41;10109259;28;20043;-77
2021/07/04 03:35:12;;;;;;;7.95;5.65;;;;;;;15.19;74.88;101123.72;10102715;28;20117;-78
2021/07/04 03:40:11;;;;;;;8.88;5.82;;;;;;;15.18;74.90;101124.88;10102908;28;20039;-80
2021/07/04 03:45:09;;;;;;;9.93;6.10;;;;;;;15.16;75.04;101121.66;10097760;28;20499;-78
2021/07/04 03:50:06;;;;;;;8.70;6.22;;;;;;;15.14;75.30;101124.75;10113373;28;20414;-79
2021/07/04 03:55:04;;;;;;;10.05;5.82;;;;;;;15.15;75.18;101126.38;10091132;28;20042;-81
2021/07/04 04:00:05;;;;;;;8.20;5.68;;;;;;;15.17;75.38;101128.78;10102612;28;20038;-79
2021/07/04 04:05:02;;;;;;;10.13;6.07;;;;;;;15.16;75.66;101127.16;10098752;28;20048;-78
2021/07/04 04:09:59;;;;;;;8.63;5.88;;;;;;;15.17;75.92;101128.78;10091376;28;20045;-79
2021/07/04 04:14:55;;;;;;;8.23;5.78;;;;;;;15.18;76.28;101135.06;10086850;28;20049;-79
2021/07/04 04:19:52;;;;;;;9.63;6.22;;;;;;;15.20;75.98;101138.31;10084183;28;20043;-77
2021/07/04 04:24:49;;;;;;;9.10;6.07;;;;;;;15.23;76.41;101137.63;10098630;28;20058;-79
2021/07/04 04:29:46;;;;;;;9.07;6.20;;;;;;;15.23;76.82;101135.69;10100970;28;20537;-77
2021/07/04 04:34:42;;;;;;;7.93;5.63;;;;;;;15.29;76.78;101137.09;10104581;28;20055;-77
2021/07/04 04:39:39;;;;;;;7.00;5.10;;;;;;;15.34;76.59;101134.13;10105672;28;20051;-79
2021/07/04 04:44:36;;;;;;;9.50;6.32;;;;;;;15.39;77.31;101141.38;10107268;28;20054;-79
2021/07/04 04:49:34;;;;;;;7.00;5.65;;;;;;;15.46;77.19;101138.06;10096373;28;20051;-80
2021/07/04 04:54:31;;;;;;;8.30;6.10;;;;;;;15.52;78.21;101128.41;10089514;28;20094;-78
2021/07/04 04:59:28;;;;;;;7.57;5.38;;;;;;;15.58;77.82;101121.53;10083671;28;20496;-78
2021/07/04 05:04:25;;;;;;;7.93;5.78;;;;;;;15.66;78.02;101123.38;10114085;28;20057;-78
2021/07/04 05:09:21;;;;;;;7.78;5.90;;;;;;;15.74;78.30;101119.75;10105705;28;20056;-79
2021/07/04 05:14:19;;;;;;;10.98;6.40;;;;;;;15.82;78.67;101125.50;10104426;28;20069;-79
2021/07/04 05:19:15;;;;;;;8.32;5.75;;;;;;;15.90;78.62;101116.31;10094089;28;20053;-80
2021/07/04 05:24:12;;;;;;;7.57;5.50;;;;;;;15.98;78.42;101112.63;10102355;28;20058;-79
2021/07/04 05:29:09;;;;;;;8.73;5.38;;;;;;;16.08;78.87;101106.69;10089603;28;20051;-79
2021/07/04 05:34:05;;;;;;;10.45;4.88;;;;;;;16.15;78.76;101106.06;10096081;28;20050;-78
2021/07/04 05:39:02;;;;;;;9.20;4.72;;;;;;;16.25;79.28;101110.34;10088519;28;20087;-77
2021/07/04 05:43:59;;;;;;;8.18;4.75;;;;;;;16.35;78.36;101112.59;10087582;28;20054;-79
2021/07/04 05:48:56;;;;;;;6.53;3.88;;;;;;;16.46;78.83;101110.97;10109937;28;20503;-80
2021/07/04 05:53:53;;;;;;;7.50;4.53;;;;;;;16.57;78.83;101112.09;10099639;28;20055;-78
2021/07/04 05:58:49;;;;;;;5.95;3.75;;;;;;;16.71;78.31;101111.72;10082919;28;20051;-78
2021/07/04 06:03:46;;;;;;;5.65;3.90;;;;;;;16.83;78.79;101091.59;10085729;28;20418;-79
2021/07/04 06:08:43;;;;;;;6.40;3.38;;;;;;;16.91;78.06;101090.59;10088971;28;20043;-80
2021/07/04 06:13:39;;;;;;;5.32;3.42;;;;;;;17.07;77.89;101089.88;10097219;28;20058;-79
2021/07/04 06:18:37;;;;;;;7.15;3.65;;;;;;;17.23;76.95;101096.22;10094171;28;20481;-78
2021/07/04 06:23:33;;;;;;;6.40;3.38;;;;;;;17.37;75.39;101088.31;10108317;28;20522;-79
2021/07/04 06:28:30;;;;;;;5.25;3.35;;;;;;;17.53;74.91;101090.28;10086811;28;20078;-79
2021/07/04 06:33:27;;;;;;;5.45;3.30;;;;;;;17.70;74.89;101098.22;10095560;28;20043;-79
2021/07/04 06:38:24;;;;;;;6.53;3.05;;;;;;;17.83;73.76;101085.94;10081453;28;20061;-79
2021/07/04 06:43:20;;;;;;;6.82;3.20;;;;;;;18.04;71.51;101093.13;10084226;28;20050;-79
2021/07/04 06:48:17;;;;;;;8.70;3.60;;;;;;;18.17;70.24;101089.09;10075819;28;20051;-79
2021/07/04 06:53:14;;;;;;;4.80;3.30;;;;;;;18.29;70.37;101082.66;10098821;28;20053;-79
2021/07/04 06:58:11;;;;;;;5.30;3.25;;;;;;;18.43;66.87;101093.22;10081125;28;20050;-79
2021/07/04 07:03:07;;;;;;;6.63;3.30;;;;;;;18.60;67.30;101087.25;10078485;28;20043;-79
2021/07/04 07:08:04;;;;;;;4.32;2.67;;;;;;;18.77;67.43;101086.03;10080420;28;20050;-77
2021/07/04 07:13:06;;;;;;;5.97;3.28;;;;;;;18.96;66.88;101076.13;10093800;28;20046;-78
2021/07/04 07:18:07;;;;;;;4.50;2.85;;;;;;;19.07;66.07;101083.47;10095057;28;20047;-76
2021/07/04 07:23:04;;;;;;;5.93;2.70;;;;;;;19.24;65.24;101081.41;10076151;28;20125;-78
2021/07/04 07:28:01;;;;;;;4.97;2.70;;;;;;;19.35;62.30;101074.06;10071507;28;20055;-77
2021/07/04 07:33:02;;;;;;;4.55;2.55;;;;;;;19.49;61.34;101070.75;10079487;28;20527;-76
2021/07/04 07:38:03;;;;;;;8.02;3.00;;;;;;;19.68;61.85;101069.88;10078753;28;20054;-75
2021/07/04 07:43:00;;;;;;;7.75;2.63;;;;;;;19.85;60.09;101065.84;10074668;28;20051;-75
2021/07/04 07:47:57;;;;;;;6.72;2.53;;;;;;;20.00;60.74;101064.84;10079652;28;20046;-76
2021/07/04 07:53:02;;;;;;;5.40;2.67;;;;;;;20.18;59.62;101067.91;10088408;28;20406;-75
2021/07/04 07:57:59;;;;;;;5.68;2.83;;;;;;;20.32;58.94;101068.09;10077626;28;20046;-76
2021/07/04 08:02:58;;;;;;;4.30;2.58;;;;;;;20.46;58.12;101061.94;10096882;28;20261;-75
2021/07/04 08:07:55;;;;;;;5.85;3.00;;;;;;;20.59;58.65;101059.75;10076405;28;20062;-73
2021/07/04 08:12:55;;;;;;;6.68;2.78;;;;;;;20.67;58.59;101066.97;10084387;28;20045;-74
2021/07/04 08:17:56;;;;;;;4.60;2.60;;;;;;;20.78;56.52;101056.78;10082692;28;20042;-72
2021/07/04 08:22:53;;;;;;;3.78;2.40;;;;;;;20.81;56.18;101056.03;10067628;28;20495;-73
2021/07/04 08:27:50;;;;;;;6.78;3.03;;;;;;;20.87;56.62;101064.84;10080632;28;20467;-77
2021/07/04 08:37:59;;;;;;;7.35;3.08;;;;;;;21.01;56.35;101056.66;10493668;23;20412;-69
2021/07/04 08:42:55;;;;;;;5.35;2.80;;;;;;;21.01;55.65;101047.53;10108587;28;20046;-69
2021/07/04 08:47:52;;;;;;;5.18;3.13;;;;;;;21.07;56.23;101045.97;10081845;28;20078;-69
2021/07/04 08:52:50;;;;;;;4.45;2.70;;;;;;;21.26;55.34;101036.66;10105040;28;20039;-69
2021/07/04 08:57:48;;;;;;;5.15;3.30;;;;;;;21.46;54.98;101033.66;10114051;28;20584;-69
2021/07/04 09:02:45;;;;;;;5.80;2.67;;;;;;;21.78;56.34;101028.34;10114578;28;20105;-70
2021/07/04 09:07:42;;;;;;;5.53;3.22;;;;;;;21.94;54.76;101028.84;10109174;28;20105;-70
2021/07/04 09:12:50;;;;;;;6.05;3.60;;;;;;;22.13;53.85;101026.97;10094389;28;20049;-72
2021/07/04 09:17:49;;;;;;;6.18;3.67;;;;;;;22.27;53.43;101021.50;10110523;28;20226;-70
2021/07/04 09:22:53;;;;;;;9.20;3.70;;;;;;;22.43;53.97;101024.75;10123173;28;20438;-70
2021/07/04 09:28:10;;;;;;;6.63;4.00;;;;;;;22.61;52.19;101018.44;10120116;28;20038;-70
2021/07/04 09:33:18;;;;;;;5.40;3.53;;;;;;;22.66;51.30;101018.06;10093022;28;20062;-70
2021/07/04 09:38:16;;;;;;;8.88;3.97;;;;;;;22.74;50.48;101016.09;10093566;28;20593;-71
2021/07/04 09:43:18;;;;;;;6.75;3.70;;;;;;;22.89;53.23;101012.94;10107766;28;20047;-70
2021/07/04 09:48:28;;;;;;;6.35;4.28;;;;;;;22.99;50.87;101016.19;10107684;28;20109;-70
2021/07/04 09:53:36;;;;;;;9.40;3.70;;;;;;;23.03;50.52;101006.63;10109557;28;20039;-72
2021/07/04 09:58:34;;;;;;;8.10;4.50;;;;;;;23.06;50.25;101005.03;10107787;28;20051;-72
2021/07/04 10:03:31;;;;;;;8.88;4.90;;;;;;;23.09;50.69;101004.22;10106321;28;20039;-73
2021/07/04 10:08:36;;;;;;;6.90;3.92;;;;;;;23.12;50.39;101003.44;10109365;28;20081;-72
2021/07/04 10:13:36;;;;;;;71.40;41.25;;;;;;;23.23;50.65;101000.66;10107125;28;20113;-70
2021/07/04 10:18:34;;;;;;;7.93;4.10;;;;;;;23.30;52.33;100998.69;10093602;28;20617;-73
2021/07/04 10:23:31;;;;;;;9.57;4.88;;;;;;;23.49;50.17;100988.31;10112871;28;20113;-72
2021/07/04 10:28:31;;;;;;;7.75;4.20;;;;;;;24.08;49.26;100985.00;10111451;28;20113;-72
2021/07/04 10:33:34;;;;;;;6.20;4.30;;;;;;;24.45;46.70;100980.88;10099228;28;20170;-72
2021/07/04 10:38:49;;;;;;;7.15;3.70;;;;;;;24.60;47.65;100981.59;10110023;28;20066;-72
2021/07/04 10:43:51;;;;;;;5.65;3.40;;;;;;;24.38;46.87;100978.91;10097951;28;20097;-72
2021/07/04 10:48:57;;;;;;;6.30;3.95;;;;;;;24.23;47.90;100975.38;10109014;28;20046;-72
2021/07/04 10:53:56;;;;;;;8.55;4.72;;;;;;;24.06;47.97;100971.44;10107394;28;20125;-72
2021/07/04 10:59:10;;;;;;;8.43;3.85;;;;;;;23.92;46.95;100965.91;10093621;28;20078;-72
2021/07/04 11:04:28;;;;;;;6.47;3.80;;;;;;;23.90;49.89;100962.72;10110901;28;20042;-73
2021/07/04 11:09:55;;;;;;;6.68;4.65;;;;;;;23.72;48.28;100957.97;10109317;28;20077;-72
2021/07/04 11:15:21;;;;;;;7.80;4.53;;;;;;;23.60;49.77;100957.59;10104744;28;20138;-73
2021/07/04 11:20:18;;;;;;;9.13;4.63;;;;;;;23.48;50.87;100964.38;10104539;28;20058;-72
2021/07/04 11:25:16;;;;;;;12.88;7.90;;;;;;;23.52;49.44;100948.44;10103368;28;20054;-72
2021/07/04 11:30:24;;;;;;;6.82;4.30;;;;;;;23.87;50.83;100941.19;10107512;28;20153;-72
2021/07/04 11:35:21;;;;;;;8.60;4.32;;;;;;;24.29;47.23;100937.44;10106597;28;20137;-72
2021/07/04 11:40:17;;;;;;;7.53;4.50;;;;;;;24.71;46.91;100938.41;10107280;28;20078;-72
2021/07/04 11:45:15;;;;;;;7.20;3.67;;;;;;;25.48;46.69;100933.81;10111975;28;20491;-71
2021/07/04 11:50:12;;;;;;;9.00;4.40;;;;;;;26.05;46.30;100926.81;10110025;28;20055;-71
2021/07/04 11:55:09;;;;;;;6.30;4.22;;;;;;;26.59;46.62;100924.88;10109503;28;20129;-72
2021/07/04 12:00:07;;;;;;;7.40;4.43;;;;;;;26.19;45.93;100918.22;10113754;28;20047;-72
2021/07/04 12:05:14;;;;;;;6.32;4.40;;;;;;;25.78;44.93;100914.28;10111254;28;20070;-72
2021/07/04 12:10:11;;;;;;;6.60;4.32;;;;;;;25.93;44.29;100914.94;10111145;28;20164;-72
2021/07/04 12:15:09;;;;;;;7.93;4.50;;;;;;;26.44;43.06;100907.44;10105868;28;20047;-72
2021/07/04 12:20:13;;;;;;;6.68;4.13;;;;;;;27.64;42.40;100901.44;10109500;28;20145;-71
2021/07/04 12:25:33;;;;;;;7.43;4.95;;;;;;;28.91;41.44;100895.47;10107826;28;20043;-71
2021/07/04 12:30:32;;;;;;;6.72;4.13;;;;;;;28.47;40.62;100886.47;10095184;28;20062;-72
2021/07/04 12:35:32;;;;;;;7.13;3.92;;;;;;;27.87;42.66;100895.81;10108810;28;20051;-71
2021/07/04 12:40:34;;;;;;;6.95;4.25;;;;;;;27.43;41.12;100888.59;10087741;28;20081;-71
2021/07/04 12:45:31;;;;;;;6.25;4.70;;;;;;;27.08;40.72;100886.03;10087890;28;20517;-71
2021/07/04 12:51:02;;;;;;;7.22;4.30;;;;;;;26.85;41.69;100886.00;10105643;28;20070;-71
2021/07/04 12:55:58;;;;;;;7.60;4.20;;;;;;;26.47;42.28;100886.16;10100111;28;20623;-71
2021/07/04 13:01:14;;;;;;;6.60;4.30;;;;;;;26.47;44.71;100880.56;10104990;28;20054;-74
2021/07/04 13:06:50;;;;;;;8.68;4.70;;;;;;;26.27;44.57;100876.84;10104222;28;20047;-72
2021/07/04 13:12:06;;;;;;;6.63;4.47;;;;;;;26.20;45.71;100877.75;10104672;28;20042;-72
2021/07/04 13:17:08;;;;;;;10.30;4.80;;;;;;;25.99;45.60;100864.81;10102356;28;20092;-72
2021/07/04 13:22:15;;;;;;;5.72;4.25;;;;;;;26.10;44.24;100859.88;10088742;28;20129;-72
2021/07/04 13:27:20;;;;;;;6.97;4.38;;;;;;;26.17;45.12;100856.97;10101119;28;20070;-72
2021/07/04 13:32:23;;;;;;;7.60;4.70;;;;;;;25.95;44.79;100856.47;10100782;28;20499;-72
2021/07/04 13:37:20;;;;;;;7.10;4.95;;;;;;;25.82;45.51;100845.00;10095965;28;20478;-72
2021/07/04 13:42:17;;;;;;;6.20;4.25;;;;;;;25.46;46.01;100852.25;10100712;28;20042;-71
2021/07/04 13:47:14;;;;;;;7.15;5.30;;;;;;;25.24;48.12;100852.47;10107925;28;20101;-71
2021/07/04 13:52:13;;;;;;;6.25;3.83;;;;;;;24.96;49.70;100837.53;10087587;28;20043;-71
2021/07/04 13:57:11;;;;;;;8.35;4.78;;;;;;;24.86;49.25;100838.44;10102195;28;20395;-72
2021/07/04 14:02:07;;;;;;;5.80;3.80;;;;;;;24.87;51.11;100839.22;10107264;28;20066;-72
2021/07/04 14:07:05;;;;;;;6.57;4.53;;;;;;;24.92;50.21;100833.97;10110529;28;20113;-71
2021/07/04 14:12:03;;;;;;;6.53;4.60;;;;;;;25.04;46.27;100831.88;10114342;28;20046;-72
2021/07/04 14:17:02;;;;;;;8.77;4.60;;;;;;;25.04;47.59;100827.09;10111379;28;20572;-72
2021/07/04 14:22:00;;;;;;;8.10;4.80;;;;;;;25.08;46.39;100827.03;10110936;28;20093;-72
2021/07/04 14:26:58;;;;;;;7.13;4.40;;;;;;;25.17;50.28;100816.94;10110584;28;20042;-73
2021/07/04 14:31:54;;;;;;;5.50;4.50;;;;;;;25.23;49.56;100811.75;10092516;28;20043;-72
2021/07/04 14:36:51;;;;;;;6.80;4.20;;;;;;;25.19;48.62;100802.59;10110744;28;20569;-72
2021/07/04 14:41:47;;;;;;;6.10;4.55;;;;;;;25.38;50.00;100801.94;10110970;28;20089;-72
2021/07/04 14:46:44;;;;;;;5.90;4.30;;;;;;;25.72;48.55;100797.56;10098066;28;20105;-72
2021/07/04 14:51:44;;;;;;;7.43;4.68;;;;;;;25.66;45.96;100800.00;10117045;28;20385;-72
2021/07/04 14:56:43;;;;;;;8.00;4.15;;;;;;;25.57;49.79;100788.53;10132310;28;20050;-72
2021/07/04 15:01:42;;;;;;;7.13;4.28;;;;;;;25.53;47.67;100784.97;10073572;28;20047;-72
2021/07/04 15:06:39;;;;;;;7.00;4.53;;;;;;;25.47;45.35;100781.06;10107523;28;20093;-72
2021/07/04 15:11:36;;;;;;;6.50;4.85;;;;;;;25.48;45.15;100779.84;10108850;28;20396;-72
2021/07/04 15:16:33;;;;;;;7.43;4.78;;;;;;;25.45;48.21;100766.69;10107984;28;20047;-72
2021/07/04 15:21:30;;;;;;;7.45;4.72;;;;;;;25.49;49.99;100778.66;10111115;28;20143;-72
2021/07/04 15:26:26;;;;;;;5.45;4.15;;;;;;;25.63;46.86;100766.47;10107573;28;20043;-71
2021/07/04 15:31:23;;;;;;;7.57;4.03;;;;;;;25.87;46.83;100765.34;10106869;28;20055;-72
2021/07/04 15:36:20;;;;;;;7.10;4.13;;;;;;;26.06;48.78;100755.47;10111833;28;20053;-72
2021/07/04 15:41:18;;;;;;;5.03;3.90;;;;;;;26.40;47.70;100746.13;10114803;28;20049;-72
2021/07/04 15:46:14;;;;;;;7.57;4.97;;;;;;;26.60;47.00;100744.22;10120466;28;20047;-72
2021/07/04 15:51:11;;;;;;;6.80;4.13;;;;;;;26.81;46.63;100740.22;10110189;28;20398;-72
2021/07/04 15:56:08;;;;;;;6.97;4.53;;;;;;;26.62;44.28;100750.19;10108520;28;20043;-73
2021/07/04 16:01:04;;;;;;;5.93;3.80;;;;;;;26.20;48.05;100738.44;10116155;28;20421;-72
2021/07/04 16:06:01;;;;;;;6.13;3.97;;;;;;;25.99;45.78;100744.38;10106673;28;20046;-71
2021/07/04 16:10:57;;;;;;;4.95;3.80;;;;;;;25.86;47.33;100751.75;10107795;28;20047;-72
2021/07/04 16:15:54;;;;;;;6.43;3.70;;;;;;;25.80;47.99;100735.41;10112165;28;20097;-72
2021/07/04 16:20:51;;;;;;;6.70;4.35;;;;;;;25.52;46.19;100744.22;10108699;28;20077;-73
2021/07/04 16:25:47;;;;;;;5.85;3.58;;;;;;;25.39;46.78;100739.19;10087657;28;20398;-72
2021/07/04 16:30:44;;;;;;;6.72;4.32;;;;;;;25.30;49.55;100727.72;10110898;28;20050;-71
2021/07/04 16:35:40;;;;;;;7.18;3.72;;;;;;;25.72;47.72;100741.56;10108912;28;20070;-71
2021/07/04 16:40:37;;;;;;;5.32;3.75;;;;;;;25.91;46.56;100731.69;10088021;28;20049;-72
2021/07/04 16:45:35;;;;;;;5.18;3.50;;;;;;;25.66;46.89;100732.81;10109887;28;20134;-71
2021/07/04 16:50:32;;;;;;;6.82;3.85;;;;;;;25.60;48.86;100734.53;10107041;28;20046;-72
2021/07/04 16:55:28;;;;;;;5.38;3.70;;;;;;;25.50;47.91;100729.84;10099906;28;20065;-72
2021/07/04 17:00:30;;;;;;;9.93;3.95;;;;;;;25.35;48.26;100723.66;10102493;28;20059;-71
2021/07/04 17:05:28;;;;;;;8.50;3.30;;;;;;;25.42;47.67;100717.19;10104536;28;20462;-71
2021/07/04 17:10:25;;;;;;;5.07;3.30;;;;;;;25.36;47.35;100720.41;10084592;28;20109;-72
2021/07/04 17:15:22;;;;;;;4.93;2.65;;;;;;;25.65;51.24;100725.66;10102571;28;20075;-72
2021/07/04 17:20:20;;;;;;;6.90;2.90;;;;;;;25.66;49.48;100727.22;10099410;28;20074;-72
2021/07/04 17:25:17;;;;;;;7.13;2.75;;;;;;;25.66;47.77;100713.22;10102427;28;20054;-71
2021/07/04 17:30:17;;;;;;;5.95;2.67;;;;;;;25.76;46.83;100726.28;10104750;28;20050;-71
2021/07/04 17:35:15;;;;;;;4.78;3.10;;;;;;;25.74;48.31;100711.91;10103388;28;20106;-71
2021/07/04 17:40:13;;;;;;;3.90;2.33;;;;;;;27.12;43.16;100716.78;10107767;28;20109;-73
2021/07/04 17:45:11;;;;;;;4.15;2.58;;;;;;;28.42;41.56;100709.81;10088742;28;20442;-73
2021/07/04 17:50:09;;;;;;;5.75;2.50;;;;;;;28.07;44.88;100712.31;10108891;28;20133;-73
2021/07/04 17:55:09;;;;;;;4.00;2.13;;;;;;;26.99;47.43;100720.25;10113586;28;20102;-73
2021/07/04 18:00:08;;;;;;;3.53;2.25;;;;;;;26.28;47.67;100732.72;10097434;28;20527;-71
2021/07/04 18:05:07;;;;;;;4.22;2.38;;;;;;;25.87;46.98;100736.56;10107182;28;20077;-72
2021/07/04 18:10:05;;;;;;;8.57;2.50;;;;;;;25.38;49.57;100731.97;10106944;28;20050;-73
2021/07/04 18:15:02;;;;;;;4.53;2.22;;;;;;;24.98;49.62;100730.84;10108973;28;20410;-72
2021/07/04 18:19:59;;;;;;;6.47;2.25;;;;;;;24.76;49.30;100733.06;10114664;28;20047;-73
2021/07/04 18:24:55;;;;;;;3.78;2.20;;;;;;;24.53;48.33;100737.31;10112104;28;20046;-71
2021/07/04 18:29:52;;;;;;;5.57;2.50;;;;;;;24.39;50.71;100731.00;10109873;28;20105;-71
2021/07/04 18:34:49;;;;;;;4.20;2.30;;;;;;;24.19;53.97;100739.94;10089526;28;20149;-70
2021/07/04 18:39:46;;;;;;;4.88;2.33;;;;;;;24.01;51.43;100740.06;10092286;28;20750;-73
2021/07/04 18:44:44;;;;;;;3.83;2.22;;;;;;;23.90;55.34;100736.56;10091809;28;20100;-73
2021/07/04 18:49:41;;;;;;;4.70;2.30;;;;;;;23.80;54.03;100745.81;10110641;28;20049;-72
2021/07/04 18:54:37;;;;;;;4.53;2.20;;;;;;;23.69;53.26;100746.63;10110680;28;20070;-73
2021/07/04 18:59:34;;;;;;;4.43;2.47;;;;;;;23.55;53.31;100746.69;10112976;28;20050;-72
2021/07/04 19:04:30;;;;;;;5.30;2.88;;;;;;;23.45;55.13;100747.56;10112306;28;20063;-72
2021/07/04 19:09:27;;;;;;;5.63;2.33;;;;;;;23.35;55.96;100748.38;10109198;28;20074;-72
2021/07/04 19:14:23;;;;;;;7.03;2.47;;;;;;;23.12;53.80;100746.88;10104577;28;20110;-72
2021/07/04 19:19:20;;;;;;;7.45;2.20;;;;;;;23.04;55.60;100745.31;10108946;28;20495;-72
2021/07/04 19:24:17;;;;;;;3.78;2.13;;;;;;;22.89;53.26;100756.47;10105712;28;20470;-72
2021/07/04 19:29:13;;;;;;;3.38;2.10;;;;;;;22.83;54.87;100757.28;10104986;28;20046;-72
2021/07/04 19:34:13;;;;;;;4.13;2.30;;;;;;;22.73;57.17;100760.88;10105555;28;20039;-73
2021/07/04 19:39:10;;;;;;;4.32;2.45;;;;;;;22.64;59.01;100764.06;10106713;28;20047;-69
2021/07/04 19:44:07;;;;;;;4.28;2.40;;;;;;;22.55;57.24;100769.25;10105191;28;20063;-68
2021/07/04 19:49:03;;;;;;;4.15;2.20;;;;;;;22.48;57.59;100776.41;10109590;28;20075;-68
2021/07/04 19:54:00;;;;;;;4.60;2.28;;;;;;;22.44;57.31;100775.63;10092110;28;20509;-70
2021/07/04 19:58:56;;;;;;;3.75;2.10;;;;;;;22.35;58.63;100783.59;10111239;28;20133;-69
2021/07/04 20:04:08;;;;;;;4.68;2.33;;;;;;;22.29;58.23;100785.16;10106293;28;20043;-72
2021/07/04 20:09:08;;;;;;;6.00;2.70;;;;;;;22.24;58.03;100793.91;10109505;28;20050;-71
2021/07/04 20:14:05;;;;;;;3.95;2.20;;;;;;;22.24;55.53;100833.69;10111625;28;20066;-68
2021/07/04 20:19:04;;;;;;;4.38;2.47;;;;;;;22.17;53.67;100860.69;10110887;28;20054;-69
2021/07/04 20:24:01;;;;;;;5.28;2.20;;;;;;;22.18;54.62;100851.16;10108453;28;20128;-69
2021/07/04 20:28:58;;;;;;;4.15;2.58;;;;;;;22.15;54.09;100846.38;10102191;28;20043;-69
2021/07/04 20:33:54;;;;;;;5.88;2.00;;;;;;;22.13;54.31;100848.75;10090096;28;22077;-68
2021/07/04 20:38:51;;;;;;;5.55;2.35;;;;;;;22.07;55.70;100862.28;10107403;28;20074;-68
2021/07/04 20:43:47;;;;;;;6.07;2.55;;;;;;;21.76;56.63;100860.94;10111457;28;20070;-68
2021/07/04 20:48:44;;;;;;;5.75;2.78;;;;;;;21.62;57.31;100865.25;10108989;28;20089;-68
2021/07/04 20:53:45;;;;;;;5.25;2.67;;;;;;;21.54;57.80;100851.72;10107283;28;20075;-69
2021/07/04 20:58:43;;;;;;;4.55;2.30;;;;;;;21.44;58.06;100853.22;10246109;23;20047;-80
2021/07/04 21:03:41;;;;;;;3.65;2.17;;;;;;;21.38;58.34;100854.78;10045098;28;20105;-80
2021/07/04 21:08:38;;;;;;;3.95;2.45;;;;;;;21.33;59.14;100857.94;10045436;28;20151;-80
2021/07/04 21:13:35;;;;;;;4.55;2.63;;;;;;;21.21;59.37;100854.28;10064738;28;20043;-80
2021/07/04 21:18:32;;;;;;;3.72;2.40;;;;;;;21.11;59.52;100846.66;10058860;28;20054;-78
2021/07/04 21:23:29;;;;;;;7.13;2.60;;;;;;;21.03;60.17;100842.25;10058003;28;20054;-79
2021/07/04 21:28:28;;;;;;;5.72;2.65;;;;;;;20.89;61.07;100829.03;10054231;28;20068;-80
2021/07/04 21:33:25;;;;;;;4.60;2.80;;;;;;;20.75;61.29;100823.38;10054026;28;20043;-80
2021/07/04 21:38:22;;;;;;;4.13;2.17;;;;;;;20.72;61.38;100819.34;10058798;28;20059;-79
2021/07/04 21:43:19;;;;;;;4.80;3.10;;;;;;;20.68;62.27;100812.19;10052040;28;20054;-80
2021/07/04 21:48:17;;;;;;;6.88;2.80;;;;;;;20.65;62.07;100810.19;10053457;28;20054;-80
2021/07/04 21:53:14;;;;;;;5.32;3.28;;;;;;;20.58;62.42;100808.97;10066276;28;20051;-80
2021/07/04 21:58:10;;;;;;;4.63;2.65;;;;;;;20.53;63.43;100805.69;10051322;28;20054;-80
2021/07/04 22:03:13;;;;;;;4.28;2.70;;;;;;;20.47;63.68;100796.09;10046402;28;20055;-81
2021/07/04 22:08:09;;;;;;;4.40;2.80;;;;;;;20.48;63.83;100803.28;10047528;28;20043;-81
2021/07/04 22:13:06;;;;;;;5.65;3.10;;;;;;;20.44;63.83;100796.88;10059802;28;20051;-79
2021/07/04 22:18:03;;;;;;;3.88;2.63;;;;;;;20.42;63.71;100799.25;10069467;28;20062;-79
2021/07/04 22:23:04;;;;;;;5.15;2.80;;;;;;;20.42;63.61;100793.69;10051585;28;20048;-80
2021/07/04 22:28:06;;;;;;;4.45;2.50;;;;;;;20.45;63.66;100798.50;10058218;28;20051;-80
2021/07/04 22:33:04;;;;;;;4.82;3.00;;;;;;;20.42;63.57;100797.25;10065656;28;20047;-79
2021/07/04 22:38:01;;;;;;;4.82;2.85;;;;;;;20.39;63.68;100790.50;10054675;28;20055;-80
2021/07/04 22:42:59;;;;;;;6.00;2.80;;;;;;;20.39;64.45;100784.94;10045983;28;20163;-81
2021/07/04 22:47:59;;;;;;;5.32;3.00;;;;;;;20.36;64.08;100768.25;10053673;28;20054;-81
2021/07/04 22:52:56;;;;;;;4.85;3.00;;;;;;;20.32;63.76;100778.53;10061713;28;20055;-81
2021/07/04 22:57:53;;;;;;;5.00;2.92;;;;;;;20.29;64.49;100770.97;10044476;28;20051;-80